Bauer, Utah
Current Conditions -  °F | °C
As of 8:50 AM on Saturday 20 Dec 2014 (Local Time) from KPVU Reporting Station
Overcast Overcast  
Wind Chill: 36°   Ceiling: 5500
Heat Index: 36°   Visibility: 10mi
Dew Point: 30°   Wind: 0mph
Humidity: 81%   Direction: NA
Pressure: 30.12"   Gusts: NA
Location:  40.2688°N, 112.37°W
Report Text: KPVU 201550Z 00000KT 10SM OVC055 02/M01 A3012
Loading
Personal Weather Stations






























Interactive Weather Map New forecast layout! Learn more

10-Day Weather Forecast

Advertisements
Track Severe Weather on mobile